Time;durP1;ratioP1;P1;durP2;ratioP2;P2;SDS_P1;SDS_P2;PMS_P1;PMS_P2;Temp;Humidity;BMP_temperature;BMP_pressure;BME280_temperature;BME280_humidity;BME280_pressure;Samples;Min_cycle;Max_cycle;Signal;HPM_P1;HPM_P2
2023/01/17 00:02:07;;;;;;;5.72;1.00;;;;;;;7.56;63.43;98380.25;5040013;28;20180;-62
2023/01/17 00:10:11;;;;;;;3.60;1.05;;;;;;;7.56;63.83;98389.06;5039441;28;20426;-61
2023/01/17 00:12:39;;;;;;;4.30;1.05;;;;;;;7.53;63.13;98396.81;5040037;28;20133;-62
2023/01/17 00:15:08;;;;;;;4.97;1.00;;;;;;;7.55;62.91;98402.69;5060311;28;20120;-61
2023/01/17 00:17:36;;;;;;;5.07;1.02;;;;;;;7.57;63.02;98411.25;5048370;28;20111;-62
2023/01/17 01:35:48;;;;;;;0.65;0.50;;;;;;;7.23;61.51;98520.34;5033813;28;20346;-61
2023/01/17 01:38:16;;;;;;;1.38;0.50;;;;;;;7.26;61.05;98526.00;5040587;28;20064;-61
2023/01/17 01:40:45;;;;;;;0.40;0.30;;;;;;;7.24;62.12;98527.31;5042380;28;20052;-61
2023/01/17 01:43:14;;;;;;;0.95;0.50;;;;;;;7.24;61.67;98535.31;5043168;28;20072;-62
2023/01/17 01:45:50;;;;;;;0.40;0.40;;;;;;;7.24;61.71;98536.13;5050867;28;20399;-62
2023/01/17 01:48:34;;;;;;;2.17;1.10;;;;;;;7.24;62.17;98544.16;5040909;28;20078;-61
2023/01/17 01:51:07;;;;;;;0.85;0.40;;;;;;;7.24;61.25;98544.16;5038640;28;20070;-61
2023/01/17 01:53:40;;;;;;;0.63;0.50;;;;;;;7.24;61.83;98543.34;5049879;28;20049;-62
2023/01/17 01:56:12;;;;;;;0.45;0.40;;;;;;;7.24;62.16;98552.16;5060250;28;20052;-61
2023/01/17 01:58:41;;;;;;;1.10;0.60;;;;;;;7.25;62.04;98550.28;5046891;28;20108;-61
2023/01/17 02:01:10;;;;;;;1.02;0.35;;;;;;;7.24;61.93;98552.16;5050341;28;20037;-61
2023/01/17 02:03:40;;;;;;;1.30;0.40;;;;;;;7.24;62.49;98562.84;5042211;28;20064;-61
2023/01/17 02:06:20;;;;;;;5.90;0.70;;;;;;;7.24;62.21;98565.50;5033925;28;20049;-61
2023/01/17 02:08:48;;;;;;;3.95;0.77;;;;;;;7.25;61.81;98574.34;5039223;28;20419;-61
2023/01/17 02:11:16;;;;;;;2.72;0.65;;;;;;;7.26;62.06;98576.75;5042860;28;20073;-62
2023/01/17 02:13:44;;;;;;;1.27;0.57;;;;;;;7.24;61.75;98578.06;5042449;28;20144;-61
2023/01/17 02:16:25;;;;;;;0.93;0.47;;;;;;;7.22;61.43;98582.84;5032796;28;20514;-61
2023/01/17 02:19:02;;;;;;;2.05;0.60;;;;;;;7.22;61.91;98588.22;5046758;28;20076;-62
2023/01/17 02:21:34;;;;;;;2.15;0.90;;;;;;;7.19;61.37;98594.88;5034996;28;20068;-61
2023/01/17 02:24:41;;;;;;;2.22;0.65;;;;;;;7.17;61.80;98592.44;5044008;28;20066;-61
2023/01/17 02:27:19;;;;;;;3.97;0.73;;;;;;;7.15;61.26;98588.41;5039765;28;20132;-62
2023/01/17 02:30:13;;;;;;;2.30;0.68;;;;;;;7.15;61.20;98591.91;5045954;28;20060;-61
2023/01/17 02:33:07;;;;;;;1.60;0.75;;;;;;;7.14;60.90;98602.84;5035082;28;20055;-61
2023/01/17 02:35:42;;;;;;;3.20;0.60;;;;;;;7.11;62.00;98598.81;5028523;28;20051;-61
2023/01/17 02:38:18;;;;;;;1.35;0.70;;;;;;;7.14;61.48;98610.84;5045349;28;20450;-62
2023/01/17 02:40:52;;;;;;;1.63;0.65;;;;;;;7.12;61.99;98604.94;5046180;28;20105;-62
2023/01/17 02:43:23;;;;;;;4.63;0.73;;;;;;;7.11;61.56;98624.72;5045982;28;20041;-61
2023/01/17 02:45:51;;;;;;;2.75;0.80;;;;;;;7.10;61.26;98623.09;5056405;28;20076;-61
2023/01/17 02:48:23;;;;;;;3.08;1.00;;;;;;;7.09;60.67;98619.63;5035434;28;20063;-61
2023/01/17 02:51:10;;;;;;;2.88;1.27;;;;;;;7.05;60.90;98607.84;5035397;28;20065;-61
2023/01/17 02:53:51;;;;;;;2.47;0.60;;;;;;;7.03;62.03;98603.81;5051922;28;20045;-61
2023/01/17 02:56:34;;;;;;;4.57;0.80;;;;;;;7.03;61.78;98598.47;5038527;28;20068;-61
2023/01/17 02:59:12;;;;;;;3.00;0.70;;;;;;;7.05;62.00;98609.69;5029269;28;20054;-61
2023/01/17 03:01:53;;;;;;;3.30;0.90;;;;;;;7.05;62.04;98610.50;5038317;28;20041;-61
2023/01/17 03:04:28;;;;;;;1.35;0.50;;;;;;;7.05;61.92;98602.50;5035232;28;20064;-61
2023/01/17 03:07:00;;;;;;;2.15;0.70;;;;;;;7.07;61.96;98610.25;5042339;28;20060;-61
2023/01/17 03:09:30;;;;;;;3.88;1.00;;;;;;;7.07;61.79;98607.56;5042957;28;20076;-61
2023/01/17 03:11:59;;;;;;;1.23;0.57;;;;;;;7.06;62.08;98614.78;5044848;28;20518;-61
2023/01/17 03:14:29;;;;;;;2.47;0.60;;;;;;;7.05;62.23;98620.38;5049605;28;20149;-61
2023/01/17 03:16:57;;;;;;;0.60;0.40;;;;;;;7.05;61.92;98612.38;5039860;28;20054;-61
2023/01/17 03:19:26;;;;;;;2.75;0.90;;;;;;;7.05;62.01;98615.84;5039681;28;20053;-61
2023/01/17 03:21:54;;;;;;;2.33;0.82;;;;;;;7.04;61.89;98629.44;5038471;28;20132;-62
2023/01/17 03:24:22;;;;;;;4.10;0.82;;;;;;;7.03;62.22;98628.66;5053676;28;20073;-61
2023/01/17 03:26:50;;;;;;;1.88;0.50;;;;;;;7.01;61.70;98628.09;5042500;28;20057;-61
2023/01/17 03:29:17;;;;;;;2.50;0.80;;;;;;;7.02;62.25;98628.91;5049792;28;20252;-61
2023/01/17 03:31:45;;;;;;;1.08;0.60;;;;;;;7.01;62.19;98627.28;5056493;28;20049;-61
2023/01/17 03:34:13;;;;;;;2.90;0.77;;;;;;;7.01;61.62;98633.44;5043524;28;20045;-61
2023/01/17 03:36:42;;;;;;;0.55;0.50;;;;;;;7.02;62.20;98634.25;5049205;28;20474;-62
2023/01/17 03:39:10;;;;;;;1.40;0.68;;;;;;;7.00;62.49;98631.81;5052708;28;20052;-61
2023/01/17 03:41:38;;;;;;;3.17;0.98;;;;;;;6.99;61.77;98637.41;5053722;28;20041;-62
2023/01/17 03:44:05;;;;;;;1.00;0.75;;;;;;;6.99;62.54;98638.22;5058079;28;20406;-62
2023/01/17 03:46:33;;;;;;;1.70;0.75;;;;;;;6.98;62.50;98641.94;5044709;28;20053;-61
2023/01/17 03:49:01;;;;;;;2.42;1.05;;;;;;;6.98;62.33;98630.47;5050629;28;20080;-61
2023/01/17 03:51:29;;;;;;;1.92;1.63;;;;;;;6.98;62.19;98638.47;5043201;28;20076;-61
2023/01/17 03:53:58;;;;;;;2.63;1.27;;;;;;;6.96;61.86;98638.72;5044835;28;20076;-61
2023/01/17 03:56:25;;;;;;;2.78;0.98;;;;;;;6.96;61.75;98637.91;5051897;28;20141;-61
2023/01/17 03:58:53;;;;;;;1.73;1.00;;;;;;;6.96;61.65;98636.06;5045502;28;20257;-61
2023/01/17 04:01:21;;;;;;;3.22;1.10;;;;;;;6.95;61.58;98636.31;5050839;28;20051;-61
2023/01/17 04:03:49;;;;;;;2.80;0.70;;;;;;;6.95;62.28;98637.13;5040746;28;20357;-61
2023/01/17 04:06:16;;;;;;;3.13;0.73;;;;;;;6.95;61.39;98637.13;5047351;28;20056;-62
2023/01/17 04:08:44;;;;;;;1.50;1.00;;;;;;;6.94;61.60;98624.81;5046043;28;20068;-62
2023/01/17 04:11:13;;;;;;;4.30;1.05;;;;;;;6.93;61.79;98633.91;5050161;28;20125;-62
2023/01/17 04:13:41;;;;;;;2.92;1.50;;;;;;;6.94;62.19;98630.16;5058219;28;20049;-61
2023/01/17 04:16:13;;;;;;;2.25;0.65;;;;;;;6.94;62.04;98626.69;5042662;28;20120;-61
2023/01/17 04:18:41;;;;;;;1.83;0.63;;;;;;;6.93;61.76;98631.25;5053713;28;20068;-61
2023/01/17 04:21:09;;;;;;;1.45;0.80;;;;;;;6.91;61.57;98628.03;5043775;28;20055;-61
2023/01/17 04:23:37;;;;;;;1.85;1.05;;;;;;;6.91;62.03;98633.38;5041402;28;20042;-61
2023/01/17 04:26:05;;;;;;;1.42;0.70;;;;;;;6.90;61.56;98631.75;5036844;28;20050;-61
2023/01/17 04:28:34;;;;;;;0.80;0.60;;;;;;;6.89;62.01;98627.47;5051282;28;20049;-61
2023/01/17 04:31:01;;;;;;;1.50;0.68;;;;;;;6.90;61.27;98630.94;5044887;28;20499;-62
2023/01/17 04:33:29;;;;;;;2.38;0.75;;;;;;;6.89;61.37;98638.16;5041818;28;20052;-61
2023/01/17 04:35:57;;;;;;;3.22;1.20;;;;;;;6.87;61.70;98632.25;5043303;28;20045;-61
2023/01/17 04:38:25;;;;;;;3.47;0.90;;;;;;;6.85;62.03;98631.69;5043968;28;20055;-61
2023/01/17 04:40:53;;;;;;;2.58;0.80;;;;;;;6.84;62.04;98633.56;5044312;28;20049;-61
2023/01/17 04:43:21;;;;;;;6.50;1.05;;;;;;;6.84;61.86;98632.75;5049668;28;20052;-61
2023/01/17 04:45:54;;;;;;;2.92;0.90;;;;;;;6.84;61.77;98630.91;5040027;28;20076;-61
2023/01/17 04:48:22;;;;;;;2.55;1.10;;;;;;;6.83;61.59;98634.63;5050769;28;20100;-62
2023/01/17 04:50:50;;;;;;;3.33;1.20;;;;;;;6.81;61.42;98635.94;5045216;28;20057;-62
2023/01/17 04:53:18;;;;;;;3.85;1.40;;;;;;;6.81;61.57;98641.28;5044215;28;20108;-61
2023/01/17 04:55:46;;;;;;;2.08;1.02;;;;;;;6.81;61.40;98639.41;5055623;28;20109;-62
2023/01/17 04:58:14;;;;;;;2.53;1.20;;;;;;;6.80;61.56;98634.31;5042856;28;20082;-61
2023/01/17 05:00:42;;;;;;;3.72;1.70;;;;;;;6.79;61.68;98630.84;5042274;28;20041;-62
2023/01/17 05:03:11;;;;;;;3.10;1.90;;;;;;;6.78;61.71;98631.09;5035562;28;20101;-61
2023/01/17 05:05:38;;;;;;;4.03;2.13;;;;;;;6.77;61.61;98634.81;5045488;28;20061;-62
2023/01/17 05:08:06;;;;;;;5.20;2.10;;;;;;;6.76;62.16;98638.56;5046372;28;20116;-61
2023/01/17 05:10:34;;;;;;;4.57;2.15;;;;;;;6.75;61.33;98632.41;5048326;28;20513;-62
2023/01/17 05:13:01;;;;;;;5.70;2.33;;;;;;;6.74;61.54;98630.78;5041670;28;20136;-61
2023/01/17 05:15:29;;;;;;;2.97;2.00;;;;;;;6.72;61.27;98632.91;5057484;28;20120;-62
2023/01/17 05:17:57;;;;;;;5.43;2.80;;;;;;;6.69;61.51;98628.06;5046128;28;20352;-61
2023/01/17 05:20:26;;;;;;;5.57;3.25;;;;;;;6.69;61.61;98640.59;5047095;28;20108;-61
2023/01/17 05:22:55;;;;;;;7.68;3.10;;;;;;;6.67;61.23;98648.88;5040726;28;20055;-62
2023/01/17 05:25:24;;;;;;;4.85;2.67;;;;;;;6.66;61.47;98651.78;5039672;28;20121;-62
2023/01/17 05:27:52;;;;;;;7.38;2.80;;;;;;;6.64;61.90;98646.69;5043180;28;20364;-61
2023/01/17 05:30:21;;;;;;;8.02;3.33;;;;;;;6.63;61.20;98650.41;5037907;28;20132;-61
2023/01/17 05:32:49;;;;;;;4.85;2.92;;;;;;;6.63;61.39;98654.94;5049968;28;20051;-61
2023/01/17 05:35:18;;;;;;;8.90;3.42;;;;;;;6.62;62.04;98653.34;5044352;28;20124;-61
2023/01/17 05:37:48;;;;;;;6.95;3.00;;;;;;;6.61;61.92;98651.72;5040212;28;20053;-61
2023/01/17 05:40:16;;;;;;;5.75;3.00;;;;;;;6.61;61.90;98657.06;5042011;28;20065;-61
2023/01/17 05:42:46;;;;;;;6.78;3.03;;;;;;;6.60;61.90;98652.78;5041376;28;20350;-61
2023/01/17 05:45:15;;;;;;;7.95;2.88;;;;;;;6.59;61.77;98653.84;5045483;28;20049;-62
2023/01/17 05:47:43;;;;;;;4.70;2.85;;;;;;;6.58;61.38;98665.56;5043415;28;20558;-62
2023/01/17 05:50:12;;;;;;;6.78;3.00;;;;;;;6.57;61.84;98661.28;5041114;28;20053;-61
2023/01/17 05:52:40;;;;;;;8.60;2.72;;;;;;;6.57;61.80;98658.63;5041229;28;20045;-62
2023/01/17 05:55:10;;;;;;;5.97;3.17;;;;;;;6.56;61.80;98668.50;5037229;28;20080;-63
2023/01/17 05:57:38;;;;;;;6.30;3.00;;;;;;;6.57;61.72;98677.31;5040112;28;20045;-61
2023/01/17 06:00:08;;;;;;;3.47;2.72;;;;;;;6.56;61.71;98678.34;5046604;28;20056;-63
2023/01/17 06:02:36;;;;;;;5.93;3.22;;;;;;;6.55;61.37;98674.06;5041781;28;20454;-61
2023/01/17 06:05:04;;;;;;;7.20;3.13;;;;;;;6.57;61.57;98678.09;5034763;28;20045;-62
2023/01/17 06:07:33;;;;;;;6.00;2.70;;;;;;;6.54;61.76;98670.59;5043695;28;20075;-65
2023/01/17 06:10:01;;;;;;;6.05;2.97;;;;;;;6.53;61.88;98668.97;5046431;28;20048;-62
2023/01/17 06:12:31;;;;;;;6.22;2.80;;;;;;;6.51;61.56;98671.91;5050509;28;20121;-61
2023/01/17 06:14:58;;;;;;;7.45;3.30;;;;;;;6.52;62.07;98678.03;5038408;28;20057;-61
2023/01/17 06:17:26;;;;;;;6.75;3.03;;;;;;;6.51;61.72;98676.44;5034622;28;20447;-61
2023/01/17 06:19:54;;;;;;;9.35;3.30;;;;;;;6.49;61.57;98676.69;5039758;28;20128;-61
2023/01/17 06:22:22;;;;;;;5.82;2.85;;;;;;;6.48;61.15;98669.72;5039121;28;20064;-62
2023/01/17 06:24:49;;;;;;;9.35;3.63;;;;;;;6.48;61.52;98671.59;5046726;28;20045;-61
2023/01/17 06:27:17;;;;;;;5.53;3.10;;;;;;;6.48;61.67;98675.06;5040406;28;20068;-61
2023/01/17 06:29:46;;;;;;;4.18;2.60;;;;;;;6.46;60.77;98679.03;5040798;28;20546;-62
2023/01/17 06:32:14;;;;;;;5.00;2.80;;;;;;;6.45;61.43;98674.75;5044457;28;20052;-63
2023/01/17 06:34:42;;;;;;;7.70;3.10;;;;;;;6.43;61.53;98672.34;5034965;28;20141;-63
2023/01/17 06:37:10;;;;;;;6.63;3.17;;;;;;;6.44;61.16;98678.47;5041300;28;20121;-62
2023/01/17 06:39:38;;;;;;;7.75;3.42;;;;;;;6.43;61.40;98684.88;5037501;28;20048;-62
2023/01/17 06:42:05;;;;;;;6.72;3.60;;;;;;;6.42;61.10;98684.06;5038926;28;20077;-66
2023/01/17 06:44:34;;;;;;;10.18;3.95;;;;;;;6.40;61.56;98683.50;5042722;28;20076;-63
2023/01/17 06:47:03;;;;;;;10.38;3.53;;;;;;;6.40;61.13;98686.16;4710560;28;10000361;-62
2023/01/17 06:49:31;;;;;;;6.60;3.30;;;;;;;6.39;61.37;98679.22;5044467;28;20057;-62
2023/01/17 06:51:58;;;;;;;6.80;3.53;;;;;;;6.39;61.41;98683.75;5049421;28;20116;-61
2023/01/17 06:54:26;;;;;;;7.78;3.20;;;;;;;6.38;60.99;98682.13;5051403;28;20053;-62
2023/01/17 06:56:54;;;;;;;7.03;4.05;;;;;;;6.35;60.65;98682.63;5046416;28;20072;-62
2023/01/17 06:59:22;;;;;;;7.28;3.78;;;;;;;6.36;61.10;98685.06;5043934;28;20081;-61
2023/01/17 07:01:50;;;;;;;5.68;3.45;;;;;;;6.35;61.39;98687.97;5045292;28;20140;-63
2023/01/17 07:04:19;;;;;;;8.20;3.60;;;;;;;6.36;61.10;98692.25;5043184;28;20069;-62
2023/01/17 07:06:47;;;;;;;11.00;4.70;;;;;;;6.35;61.38;98687.97;5046503;28;20072;-62
2023/01/17 07:09:15;;;;;;;7.47;3.67;;;;;;;6.34;60.95;98697.81;5044930;28;20446;-63
2023/01/17 07:11:44;;;;;;;7.28;3.65;;;;;;;6.33;60.83;98700.75;5043696;28;20147;-62
2023/01/17 07:14:13;;;;;;;7.70;4.38;;;;;;;6.31;61.20;98690.31;5049891;28;20068;-61
2023/01/17 07:16:44;;;;;;;8.07;4.82;;;;;;;6.15;60.57;98694.66;5064141;28;20081;-66
2023/01/17 07:19:12;;;;;;;8.88;4.53;;;;;;;6.14;60.55;98702.88;5057165;28;20046;-64
2023/01/17 07:21:41;;;;;;;8.65;4.00;;;;;;;6.14;60.99;98695.69;5046315;28;20093;-64
2023/01/17 07:24:09;;;;;;;9.40;4.20;;;;;;;6.16;61.06;98701.59;5050304;28;20052;-64
2023/01/17 07:26:39;;;;;;;6.63;4.25;;;;;;;6.19;60.74;98702.97;5056337;28;20491;-64
2023/01/17 07:29:07;;;;;;;10.23;4.38;;;;;;;6.25;61.01;98709.97;5049288;28;20630;-64
2023/01/17 07:31:36;;;;;;;9.07;4.20;;;;;;;6.38;60.93;98704.28;5065086;28;20045;-64
2023/01/17 07:34:04;;;;;;;8.20;4.45;;;;;;;6.53;60.10;98696.47;5057474;28;20045;-64
2023/01/17 07:36:32;;;;;;;5.70;4.15;;;;;;;6.72;59.94;98709.50;5060223;28;20264;-64
2023/01/17 07:39:01;;;;;;;8.90;4.68;;;;;;;6.84;59.13;98702.97;5051803;28;20117;-63
2023/01/17 07:41:33;;;;;;;9.27;5.13;;;;;;;6.98;59.13;98700.69;5042081;28;20104;-64
2023/01/17 07:44:01;;;;;;;11.13;5.20;;;;;;;7.16;58.76;98702.22;5048504;28;20123;-64
2023/01/17 07:46:28;;;;;;;14.40;5.38;;;;;;;7.28;57.59;98699.41;5048696;28;20041;-64
2023/01/17 07:48:58;;;;;;;8.57;4.57;;;;;;;7.37;58.11;98705.88;5060479;28;20058;-64
2023/01/17 07:51:26;;;;;;;10.48;4.57;;;;;;;7.30;58.13;98705.28;5057190;28;20060;-64
2023/01/17 07:53:53;;;;;;;8.30;5.00;;;;;;;7.18;57.77;98706.25;5049546;28;20053;-64
2023/01/17 07:56:23;;;;;;;13.27;5.30;;;;;;;7.03;58.11;98708.75;5064829;28;20521;-64
2023/01/17 07:58:50;;;;;;;8.70;4.68;;;;;;;6.92;59.06;98707.06;5048780;28;20056;-64
2023/01/17 08:01:18;;;;;;;13.25;5.40;;;;;;;6.83;59.27;98711.25;5064196;28;20041;-64
2023/01/17 08:03:46;;;;;;;10.07;5.22;;;;;;;6.75;59.34;98711.69;5038480;28;20049;-64
2023/01/17 08:06:18;;;;;;;10.43;5.43;;;;;;;6.68;59.55;98703.06;5053253;28;20045;-64
2023/01/17 08:08:46;;;;;;;11.38;5.35;;;;;;;6.61;59.54;98705.09;5055700;28;20072;-64
2023/01/17 08:11:14;;;;;;;11.20;4.50;;;;;;;6.58;59.82;98705.59;5061933;28;20045;-64
2023/01/17 08:13:43;;;;;;;9.57;5.72;;;;;;;6.47;59.75;98697.47;5043919;28;20049;-64
2023/01/17 08:16:12;;;;;;;11.73;5.90;;;;;;;6.50;59.70;98698.84;5060239;28;20075;-63
2023/01/17 08:18:40;;;;;;;10.25;5.38;;;;;;;6.47;59.56;98702.81;5033028;28;20041;-63
2023/01/17 08:21:13;;;;;;;9.07;5.43;;;;;;;6.39;60.08;98700.56;5046687;28;20112;-64
2023/01/17 08:23:41;;;;;;;13.40;6.50;;;;;;;6.40;59.93;98709.38;5043709;28;20076;-64
2023/01/17 08:26:09;;;;;;;9.57;5.53;;;;;;;6.38;60.25;98703.47;5048459;28;20056;-64
2023/01/17 08:28:36;;;;;;;11.07;5.72;;;;;;;6.35;59.96;98710.13;5048626;28;20132;-64
2023/01/17 08:31:09;;;;;;;9.75;5.80;;;;;;;6.32;59.77;98712.47;5040718;28;20064;-64
2023/01/17 08:33:37;;;;;;;7.57;5.40;;;;;;;6.30;60.60;98718.06;5054663;28;20277;-64
2023/01/17 08:36:05;;;;;;;9.35;5.03;;;;;;;6.30;60.27;98726.06;5051234;28;20056;-64
2023/01/17 08:38:33;;;;;;;10.07;5.70;;;;;;;6.28;59.89;98722.81;5044788;28;20046;-64
2023/01/17 08:41:01;;;;;;;11.40;5.80;;;;;;;6.28;59.53;98736.16;5064161;28;20076;-64
2023/01/17 08:43:29;;;;;;;8.20;6.05;;;;;;;6.25;60.62;98733.97;5056856;28;20055;-64
2023/01/17 08:45:56;;;;;;;10.23;5.25;;;;;;;6.25;60.60;98727.84;5051722;28;20051;-64
2023/01/17 08:48:26;;;;;;;10.55;5.78;;;;;;;6.22;60.34;98726.47;5046924;28;20049;-64
2023/01/17 08:50:53;;;;;;;10.38;5.95;;;;;;;6.21;60.23;98740.88;5054070;28;20067;-64
2023/01/17 08:53:22;;;;;;;12.38;6.57;;;;;;;6.19;60.61;98740.28;5041713;28;20132;-64
2023/01/17 08:55:57;;;;;;;11.45;6.28;;;;;;;6.19;60.74;98737.63;5063737;28;20122;-64
2023/01/17 08:58:26;;;;;;;15.23;6.00;;;;;;;6.18;60.58;98736.81;5053256;28;20052;-64
2023/01/17 09:00:59;;;;;;;11.07;5.88;;;;;;;6.18;60.32;98736.81;5034945;28;20072;-64
2023/01/17 09:03:29;;;;;;;11.77;5.50;;;;;;;6.14;60.26;98724.22;5051042;28;20521;-64
2023/01/17 09:06:04;;;;;;;12.05;6.45;;;;;;;6.16;60.41;98728.25;5061136;28;20248;-63
2023/01/17 09:08:32;;;;;;;11.20;5.93;;;;;;;6.15;60.19;98725.84;5044748;28;20334;-63
2023/01/17 09:11:03;;;;;;;15.50;6.68;;;;;;;6.14;60.77;98724.22;5056434;28;20104;-64
2023/01/17 09:13:31;;;;;;;10.95;5.53;;;;;;;6.13;60.53;98725.28;5057147;28;20041;-64
2023/01/17 09:15:59;;;;;;;9.85;6.75;;;;;;;6.13;60.27;98731.41;5059505;28;20319;-64
2023/01/17 09:18:30;;;;;;;7.40;5.05;;;;;;;6.12;60.06;98737.00;5045218;28;20045;-63
2023/01/17 09:20:58;;;;;;;15.77;7.07;;;;;;;6.13;60.71;98733.28;5041856;28;20073;-64
2023/01/17 09:23:27;;;;;;;10.23;5.40;;;;;;;6.14;60.26;98737.56;5041292;28;20045;-64
2023/01/17 09:25:56;;;;;;;8.75;5.72;;;;;;;6.12;60.40;98729.81;5051876;28;20113;-63
2023/01/17 09:28:25;;;;;;;11.43;6.03;;;;;;;6.12;60.13;98737.00;5046710;28;20176;-63
2023/01/17 09:30:53;;;;;;;12.35;5.53;;;;;;;6.11;60.50;98733.53;5061713;28;20530;-63
2023/01/17 09:33:22;;;;;;;11.65;5.63;;;;;;;6.09;60.44;98724.16;5062454;28;20045;-63
2023/01/17 09:35:51;;;;;;;9.20;4.88;;;;;;;6.14;60.26;98742.88;5062819;28;20276;-63
2023/01/17 09:38:20;;;;;;;10.05;4.97;;;;;;;6.12;60.61;98743.13;5038496;28;20113;-64
2023/01/17 09:40:48;;;;;;;11.40;6.28;;;;;;;6.12;60.10;98745.00;5042404;28;20056;-63
2023/01/17 09:43:23;;;;;;;11.77;5.25;;;;;;;6.12;60.21;98748.47;5057266;28;20041;-64
2023/01/17 09:45:52;;;;;;;10.43;5.70;;;;;;;6.11;60.47;98744.19;5048070;28;20121;-64
2023/01/17 09:48:28;;;;;;;10.85;5.78;;;;;;;6.09;60.83;98748.97;5042420;28;20056;-64
2023/01/17 09:51:02;;;;;;;11.00;6.50;;;;;;;6.13;60.43;98749.28;5052887;28;20528;-64
2023/01/17 09:53:34;;;;;;;12.23;5.47;;;;;;;6.11;60.66;98748.72;5048505;28;20045;-63
2023/01/17 09:56:06;;;;;;;11.93;5.30;;;;;;;6.14;60.52;98751.69;5049113;28;20567;-64
2023/01/17 09:58:41;;;;;;;13.20;5.05;;;;;;;6.15;60.68;98753.31;5030579;28;20117;-63
2023/01/17 10:01:15;;;;;;;11.35;6.05;;;;;;;6.16;60.68;98757.59;5049820;28;20072;-64
2023/01/17 10:04:11;;;;;;;7.72;5.50;;;;;;;6.16;60.70;98762.94;5042212;28;20048;-63
2023/01/17 10:06:59;;;;;;;12.93;5.43;;;;;;;6.18;60.65;98765.34;5045469;28;19929;-63
2023/01/17 10:09:57;;;;;;;9.07;5.30;;;;;;;6.18;60.67;98757.34;5039276;28;20052;-64
2023/01/17 10:12:30;;;;;;;;;;;;;;;6.18;60.44;98762.69;5057199;28;20095;-63
2023/01/17 10:15:16;;;;;;;9.43;4.75;;;;;;;6.18;60.87;98765.34;5043219;28;19988;-63
2023/01/17 10:17:53;;;;;;;9.85;5.50;;;;;;;6.19;60.88;98765.09;5055611;28;20052;-63
2023/01/17 10:20:45;;;;;;;8.48;5.50;;;;;;;6.22;61.44;98774.47;5030490;28;20060;-63
2023/01/17 10:23:32;;;;;;;9.40;4.82;;;;;;;6.23;61.41;98773.44;5033727;28;20100;-64
2023/01/17 10:26:03;;;;;;;10.15;5.60;;;;;;;6.25;60.97;98770.53;5038933;28;20129;-64
2023/01/17 10:28:36;;;;;;;8.80;4.53;;;;;;;6.24;61.78;98769.72;5043769;28;20042;-63
2023/01/17 10:31:07;;;;;;;9.25;4.78;;;;;;;6.25;61.85;98770.53;5039449;28;20121;-63
2023/01/17 10:33:41;;;;;;;9.82;4.95;;;;;;;6.24;61.45;98761.72;5061461;28;20052;-63
2023/01/17 10:36:15;;;;;;;10.85;4.85;;;;;;;6.25;61.61;98767.84;5052513;28;20078;-63
2023/01/17 10:38:48;;;;;;;11.00;4.95;;;;;;;6.21;62.52;98762.19;5039523;28;20128;-64
2023/01/17 10:41:22;;;;;;;9.73;5.22;;;;;;;6.17;62.42;98759.22;5039746;28;20132;-64
2023/01/17 10:43:58;;;;;;;8.63;5.30;;;;;;;6.24;62.71;98764.38;5045287;28;20068;-64
2023/01/17 10:46:33;;;;;;;8.75;5.38;;;;;;;6.40;62.00;98770.75;5040617;28;20049;-64
2023/01/17 10:49:02;;;;;;;11.50;5.13;;;;;;;6.59;61.90;98771.25;5044641;28;20546;-63
2023/01/17 10:51:58;;;;;;;8.45;4.60;;;;;;;6.77;60.29;98768.28;5040389;28;20144;-64
2023/01/17 10:54:40;;;;;;;7.97;5.18;;;;;;;6.97;60.31;98773.06;5032303;28;20056;-64
2023/01/17 10:57:14;;;;;;;9.70;5.30;;;;;;;7.15;59.09;98762.03;5042897;28;20049;-64
2023/01/17 10:59:42;;;;;;;7.13;4.68;;;;;;;7.34;58.90;98760.66;5040351;28;20072;-64
2023/01/17 11:02:20;;;;;;;10.13;4.70;;;;;;;7.54;58.52;98756.56;5049601;28;20056;-64
2023/01/17 11:04:53;;;;;;;7.60;4.38;;;;;;;7.72;57.81;98765.00;5043605;28;20423;-64
2023/01/17 11:07:22;;;;;;;8.23;5.03;;;;;;;7.90;57.73;98749.66;5036560;28;20053;-63
2023/01/17 11:09:53;;;;;;;11.20;4.90;;;;;;;8.10;56.87;98765.84;5040360;28;20053;-64
2023/01/17 11:12:26;;;;;;;11.27;5.45;;;;;;;8.23;56.66;98760.06;5049518;28;20080;-64
2023/01/17 11:15:06;;;;;;;7.60;4.55;;;;;;;8.34;56.19;98758.28;5031675;28;20200;-64
2023/01/17 11:17:36;;;;;;;11.15;4.88;;;;;;;8.42;55.63;98760.47;5040997;28;20113;-64
2023/01/17 11:20:15;;;;;;;11.38;4.70;;;;;;;8.52;55.39;98752.50;5045322;28;20049;-64
2023/01/17 11:23:01;;;;;;;9.07;4.45;;;;;;;8.56;55.33;98750.13;5042159;28;20487;-64
2023/01/17 11:25:33;;;;;;;12.73;4.75;;;;;;;8.41;55.81;98748.16;5046197;28;20598;-64
2023/01/17 11:28:04;;;;;;;11.43;4.32;;;;;;;8.22;56.87;98745.06;5048715;28;20073;-64
2023/01/17 11:30:32;;;;;;;8.07;4.25;;;;;;;8.01;56.81;98746.78;5047140;28;20049;-62
2023/01/17 11:33:04;;;;;;;8.30;4.57;;;;;;;7.81;57.46;98750.13;5053123;28;20049;-63
2023/01/17 11:35:35;;;;;;;6.10;3.90;;;;;;;7.67;58.06;98748.13;4689802;28;10000388;-64
2023/01/17 11:38:11;;;;;;;11.50;4.25;;;;;;;7.54;57.45;98745.88;5036199;28;20595;-64
2023/01/17 11:40:42;;;;;;;9.00;4.13;;;;;;;7.44;57.86;98749.25;5037278;28;20132;-64
2023/01/17 11:43:22;;;;;;;6.97;3.58;;;;;;;7.38;58.81;98743.03;5052878;28;20144;-64
2023/01/17 11:46:05;;;;;;;10.45;4.32;;;;;;;7.30;58.45;98745.38;5034123;28;20435;-63
2023/01/17 11:48:36;;;;;;;9.05;3.95;;;;;;;7.24;58.83;98735.69;5042986;28;20053;-64
2023/01/17 11:51:14;;;;;;;5.35;3.20;;;;;;;7.21;58.68;98734.31;5037260;28;20050;-64
2023/01/17 11:53:46;;;;;;;7.65;3.58;;;;;;;7.11;59.30;98723.53;5040211;28;20076;-64
2023/01/17 11:56:26;;;;;;;6.07;3.85;;;;;;;7.17;58.73;98735.88;5041011;28;20081;-63
2023/01/17 11:59:23;;;;;;;7.35;3.38;;;;;;;7.14;58.92;98723.84;5040441;28;20507;-64
2023/01/17 12:02:15;;;;;;;5.80;2.80;;;;;;;7.13;59.34;98734.78;5039702;28;20118;-64
2023/01/17 12:04:46;;;;;;;5.35;3.20;;;;;;;7.08;58.17;98724.84;5032200;28;20175;-64
2023/01/17 12:07:25;;;;;;;8.48;3.42;;;;;;;7.08;58.84;98729.38;5039963;28;20521;-64
2023/01/17 12:10:00;;;;;;;8.32;2.55;;;;;;;7.08;58.42;98724.03;5031088;28;20053;-63
2023/01/17 12:15:33;;;;;;;;;;;;;;;7.04;58.33;98722.94;5061072;28;20055;-64
2023/01/17 12:18:23;;;;;;;4.20;2.47;;;;;;;7.05;59.00;98724.53;5041680;28;20345;-63
2023/01/17 12:21:02;;;;;;;5.30;2.78;;;;;;;7.05;58.07;98720.00;5035701;28;20547;-64
2023/01/17 12:23:44;;;;;;;3.85;2.20;;;;;;;7.04;58.45;98722.94;5048737;28;20049;-64
2023/01/17 12:26:26;;;;;;;5.60;2.50;;;;;;;7.04;58.01;98717.59;5039458;28;20091;-64
2023/01/17 12:29:20;;;;;;;5.35;2.55;;;;;;;7.04;58.68;98722.94;5039013;28;20076;-63
2023/01/17 12:32:00;;;;;;;4.57;2.17;;;;;;;7.05;58.17;98730.69;5036065;28;20060;-64
2023/01/17 12:34:34;;;;;;;5.90;2.50;;;;;;;7.05;59.00;98730.69;5056243;28;20087;-63
2023/01/17 12:37:12;;;;;;;7.82;2.10;;;;;;;6.94;58.09;98702.25;5046401;28;20168;-63
2023/01/17 12:39:47;;;;;;;8.35;2.15;;;;;;;7.09;57.43;98714.97;5050242;28;20044;-63
2023/01/17 12:42:20;;;;;;;6.07;2.38;;;;;;;7.26;56.99;98717.53;5051842;28;20057;-63
2023/01/17 12:44:56;;;;;;;6.93;2.20;;;;;;;7.46;56.54;98715.06;5030761;28;20058;-63
2023/01/17 12:47:25;;;;;;;5.45;2.60;;;;;;;7.70;55.32;98715.53;5046887;28;20048;-64
2023/01/17 12:50:02;;;;;;;4.28;1.75;;;;;;;7.90;55.49;98707.66;5045654;28;20051;-63
2023/01/17 12:52:41;;;;;;;7.80;1.83;;;;;;;8.09;54.71;98710.75;5040510;28;20481;-63
2023/01/17 12:55:14;;;;;;;6.43;1.98;;;;;;;8.32;54.20;98710.34;5040081;28;20630;-63
2023/01/17 12:57:46;;;;;;;4.15;2.15;;;;;;;8.47;53.69;98710.44;5046145;28;20072;-63
2023/01/17 13:00:21;;;;;;;4.25;2.05;;;;;;;8.62;52.58;98712.41;5042253;28;20046;-63
2023/01/17 13:02:53;;;;;;;6.60;2.13;;;;;;;8.81;52.48;98708.16;5053066;28;20422;-63
2023/01/17 13:05:25;;;;;;;3.53;1.92;;;;;;;8.91;51.54;98704.72;5042108;28;20088;-63
2023/01/17 13:08:01;;;;;;;5.25;1.58;;;;;;;8.99;51.77;98703.38;5040041;28;20050;-63
2023/01/17 13:10:34;;;;;;;6.15;1.63;;;;;;;8.97;51.15;98706.34;5038223;28;20113;-63
2023/01/17 13:13:13;;;;;;;7.82;1.75;;;;;;;8.82;51.07;98703.59;5037577;28;20120;-63
2023/01/17 13:15:43;;;;;;;6.35;2.13;;;;;;;8.57;52.00;98701.66;5032514;28;20089;-63
2023/01/17 13:18:14;;;;;;;3.95;1.77;;;;;;;8.37;51.61;98706.91;5037993;28;20055;-64
2023/01/17 13:21:07;;;;;;;8.77;2.70;;;;;;;8.18;52.24;98711.88;5040434;28;20458;-63
2023/01/17 13:23:54;;;;;;;5.22;2.13;;;;;;;8.02;52.61;98708.28;5037967;28;20053;-62
2023/01/17 13:26:32;;;;;;;5.85;2.03;;;;;;;7.89;52.39;98706.06;5036037;28;20076;-63
2023/01/17 13:29:09;;;;;;;4.70;1.77;;;;;;;7.78;52.38;98707.84;5039337;28;20061;-64